createdAt,value
2019-01-23T00:01:46.800Z,120.67
2019-01-23T00:04:17.010Z,127.83
2019-01-23T00:06:47.173Z,124.87
2019-01-23T00:09:17.223Z,113.80
2019-01-23T00:11:47.988Z,129.60
2019-01-23T00:14:37.154Z,121.13
2019-01-23T00:17:07.237Z,124.57
2019-01-23T00:19:37.475Z,115.07
2019-01-23T00:22:07.490Z,131.97
2019-01-23T00:24:37.672Z,132.63
2019-01-23T00:27:07.808Z,133.20
2019-01-23T00:29:38.006Z,125.30
2019-01-23T00:32:08.093Z,123.87
2019-01-23T00:34:38.206Z,127.57
2019-01-23T00:37:08.343Z,130.53
2019-01-23T00:39:38.907Z,129.03
2019-01-23T00:42:08.959Z,120.83
2019-01-23T00:44:39.086Z,137.00
2019-01-23T00:47:09.159Z,126.93
2019-01-23T00:49:39.572Z,117.80
2019-01-23T00:52:09.768Z,112.53
2019-01-23T00:54:42.329Z,123.53
2019-01-23T00:57:12.370Z,120.83
2019-01-23T00:59:42.904Z,114.57
2019-01-23T01:02:12.988Z,114.97
2019-01-23T01:04:43.659Z,111.93
2019-01-23T01:07:13.833Z,131.60
2019-01-23T01:09:44.649Z,120.97
2019-01-23T01:12:14.776Z,120.93
2019-01-23T01:14:45.229Z,132.13
2019-01-23T01:17:15.342Z,120.30
2019-01-23T01:19:45.613Z,124.00
2019-01-23T01:22:15.727Z,127.67
2019-01-23T01:24:45.881Z,119.50
2019-01-23T01:27:15.994Z,128.03
2019-01-23T01:29:46.104Z,130.83
2019-01-23T01:32:16.256Z,129.80
2019-01-23T01:34:46.506Z,139.43
2019-01-23T01:37:16.588Z,135.87
2019-01-23T01:39:46.852Z,143.07
2019-01-23T01:42:16.939Z,138.03
2019-01-23T01:44:47.171Z,135.57
2019-01-23T01:47:17.288Z,125.67
2019-01-23T01:49:47.378Z,153.80
2019-01-23T01:52:17.519Z,129.53
2019-01-23T01:54:47.688Z,150.77
2019-01-23T01:57:17.821Z,144.47
2019-01-23T01:59:47.971Z,135.93
2019-01-23T02:02:18.077Z,134.53
2019-01-23T02:04:48.236Z,138.50
2019-01-23T02:07:18.380Z,136.03
2019-01-23T02:09:48.455Z,136.87
2019-01-23T02:12:18.596Z,133.73
2019-01-23T02:14:49.080Z,140.63
2019-01-23T02:17:19.187Z,141.27
2019-01-23T02:19:49.265Z,136.17
2019-01-23T02:22:19.427Z,136.10
2019-01-23T02:24:49.538Z,144.37
2019-01-23T02:27:19.595Z,153.90
2019-01-23T02:29:49.738Z,140.17
2019-01-23T02:32:19.865Z,143.80
2019-01-23T02:34:49.983Z,144.83
2019-01-23T02:37:20.097Z,142.43
2019-01-23T02:39:50.213Z,138.57
2019-01-23T02:42:20.326Z,151.07
2019-01-23T02:44:50.469Z,149.87
2019-01-23T02:47:20.604Z,134.87
2019-01-23T02:49:50.756Z,133.83
2019-01-23T02:52:20.845Z,142.37
2019-01-23T02:54:50.965Z,149.10
2019-01-23T02:57:21.132Z,151.23
2019-01-23T02:59:51.226Z,148.00
2019-01-23T03:02:21.330Z,141.83
2019-01-23T03:04:51.480Z,150.87
2019-01-23T03:07:21.585Z,139.13
2019-01-23T03:09:51.818Z,146.47
2019-01-23T03:12:21.896Z,148.43
2019-01-23T03:14:52.023Z,140.30
2019-01-23T03:17:22.176Z,143.57
2019-01-23T03:19:52.276Z,138.20
2019-01-23T03:22:22.393Z,146.17
2019-01-23T03:24:52.701Z,149.20
2019-01-23T03:27:22.810Z,154.37
2019-01-23T03:29:52.951Z,128.40
2019-01-23T03:32:23.051Z,148.37
2019-01-23T03:34:53.113Z,144.83
2019-01-23T03:37:23.240Z,162.23
2019-01-23T03:39:53.792Z,159.63
2019-01-23T03:42:24.076Z,156.93
2019-01-23T03:44:54.156Z,155.60
2019-01-23T03:47:24.317Z,160.70
2019-01-23T03:49:54.491Z,166.63
2019-01-23T03:52:24.582Z,173.90
2019-01-23T03:54:55.036Z,185.63
2019-01-23T03:57:25.281Z,185.17
2019-01-23T03:59:55.405Z,197.30
2019-01-23T04:02:25.539Z,165.80
2019-01-23T04:04:55.666Z,173.23
2019-01-23T04:07:25.751Z,190.80
2019-01-23T04:09:56.245Z,183.33
2019-01-23T04:12:26.286Z,213.90
2019-01-23T04:14:56.397Z,204.70
2019-01-23T04:17:26.560Z,207.37
2019-01-23T04:19:56.599Z,213.30
2019-01-23T04:22:31.496Z,214.07
2019-01-23T04:25:01.876Z,228.90
2019-01-23T04:27:32.497Z,232.47
2019-01-23T04:30:02.615Z,248.00
2019-01-23T04:32:32.680Z,230.13
2019-01-23T04:35:02.882Z,247.97
2019-01-23T04:37:32.963Z,242.63
2019-01-23T04:40:03.188Z,224.47
2019-01-23T04:42:33.689Z,241.17
2019-01-23T04:45:03.890Z,239.93
2019-01-23T04:47:33.969Z,248.00
2019-01-23T04:50:04.580Z,229.80
2019-01-23T04:53:02.895Z,247.30
2019-01-23T04:55:34.039Z,265.33
2019-01-23T04:58:04.128Z,238.90
2019-01-23T05:00:36.352Z,269.00
2019-01-23T05:03:06.510Z,245.77
2019-01-23T05:05:36.603Z,278.87
2019-01-23T05:08:06.924Z,240.53
2019-01-23T05:10:37.033Z,261.43
2019-01-23T05:13:07.113Z,267.10
2019-01-23T05:15:37.282Z,293.40
2019-01-23T05:18:07.378Z,272.90
2019-01-23T05:20:37.586Z,287.50
2019-01-23T05:23:07.746Z,305.33
2019-01-23T05:25:37.936Z,303.53
2019-01-23T05:28:08.112Z,307.70
2019-01-23T05:30:39.083Z,279.23
2019-01-23T05:33:09.188Z,281.77
2019-01-23T05:35:41.184Z,292.47
2019-01-23T05:38:11.355Z,323.63
2019-01-23T05:40:41.446Z,301.43
2019-01-23T05:43:11.544Z,319.17
2019-01-23T05:45:42.835Z,302.53
2019-01-23T05:48:16.696Z,326.10
2019-01-23T05:50:48.091Z,316.30
2019-01-23T05:53:18.116Z,313.03
2019-01-23T05:55:50.096Z,326.27
2019-01-23T05:58:20.546Z,358.43
2019-01-23T06:00:50.697Z,312.93
2019-01-23T06:03:21.443Z,324.07
2019-01-23T06:05:52.066Z,315.20
2019-01-23T06:08:22.302Z,327.57
2019-01-23T06:10:52.506Z,331.00
2019-01-23T06:13:22.557Z,337.77
2019-01-23T06:15:52.645Z,336.47
2019-01-23T06:18:22.791Z,330.13
2019-01-23T06:20:52.913Z,305.00
2019-01-23T06:23:23.089Z,332.33
2019-01-23T06:25:53.194Z,327.53
2019-01-23T06:28:23.288Z,313.73
2019-01-23T06:30:54.295Z,321.70
2019-01-23T06:33:24.629Z,317.03
2019-01-23T06:36:04.035Z,312.63
2019-01-23T06:38:43.550Z,306.37
2019-01-23T06:41:21.813Z,316.23
2019-01-23T06:43:52.658Z,318.13
2019-01-23T06:46:22.812Z,357.33
2019-01-23T06:48:53.667Z,363.23
2019-01-23T06:51:26.105Z,324.40
2019-01-23T06:53:56.343Z,317.10
2019-01-23T06:56:26.707Z,329.93
2019-01-23T06:58:56.995Z,292.30
2019-01-23T07:01:27.636Z,306.07
2019-01-23T07:03:58.195Z,316.13
2019-01-23T07:06:28.964Z,325.20
2019-01-23T07:08:59.070Z,327.57
2019-01-23T07:11:30.460Z,315.13
2019-01-23T07:14:00.568Z,322.20
2019-01-23T07:16:30.761Z,321.57
2019-01-23T07:19:00.986Z,317.67
2019-01-23T07:21:31.141Z,335.73
2019-01-23T07:24:01.288Z,311.47
2019-01-23T07:26:31.346Z,324.33
2019-01-23T07:29:01.388Z,337.63
2019-01-23T07:31:35.084Z,328.00
2019-01-23T07:34:05.224Z,320.57
2019-01-23T07:36:35.561Z,291.33
2019-01-23T07:39:09.640Z,297.60
2019-01-23T07:41:39.844Z,302.63
2019-01-23T07:44:10.137Z,322.23
2019-01-23T07:46:41.512Z,302.97
2019-01-23T07:49:11.667Z,328.33
2019-01-23T07:51:42.370Z,297.53
2019-01-23T07:54:12.493Z,311.47
2019-01-23T07:56:42.733Z,308.77
2019-01-23T07:59:13.754Z,299.60
2019-01-23T08:01:43.871Z,298.67
2019-01-23T08:04:14.233Z,309.23
2019-01-23T08:06:44.370Z,286.10
2019-01-23T08:09:14.495Z,288.50
2019-01-23T08:11:44.703Z,280.70
2019-01-23T08:14:14.810Z,288.23
2019-01-23T08:16:45.017Z,285.73
2019-01-23T08:19:15.114Z,264.70
2019-01-23T08:21:45.288Z,266.47
2019-01-23T08:24:15.339Z,277.67
2019-01-23T08:26:48.580Z,268.70
2019-01-23T08:29:18.734Z,258.80
2019-01-23T08:31:48.830Z,268.53
2019-01-23T08:34:19.310Z,251.37
2019-01-23T08:36:49.368Z,275.90
2019-01-23T08:39:19.442Z,245.37
2019-01-23T08:41:49.631Z,242.90
2019-01-23T08:44:19.798Z,253.50
2019-01-23T08:46:49.940Z,243.30
2019-01-23T08:49:20.085Z,246.20
2019-01-23T08:51:50.133Z,243.13
2019-01-23T08:54:20.281Z,241.70
2019-01-23T08:56:50.449Z,251.53
2019-01-23T08:59:22.063Z,236.00
2019-01-23T09:01:52.205Z,264.07
2019-01-23T09:04:22.256Z,249.97
2019-01-23T09:06:52.327Z,254.33
2019-01-23T09:09:22.422Z,245.60
2019-01-23T09:11:52.547Z,237.83
2019-01-23T09:14:22.686Z,216.83
2019-01-23T09:16:52.761Z,232.27
2019-01-23T09:19:22.923Z,235.97
2019-01-23T09:21:53.126Z,228.87
2019-01-23T09:24:23.198Z,220.40
2019-01-23T09:26:53.497Z,215.93
2019-01-23T09:29:23.635Z,219.17
2019-01-23T09:32:01.607Z,216.17
2019-01-23T09:35:08.620Z,230.80
2019-01-23T09:38:07.528Z,244.70
2019-01-23T09:41:03.715Z,228.37
2019-01-23T09:44:20.569Z,229.73
2019-01-23T09:47:26.832Z,201.87
2019-01-23T09:50:40.137Z,220.23
2019-01-23T09:53:39.083Z,222.37
2019-01-23T09:56:09.241Z,209.90
2019-01-23T09:58:39.497Z,200.37
2019-01-23T10:01:09.594Z,208.43
2019-01-23T10:03:40.986Z,236.17
2019-01-23T10:06:11.287Z,220.73
2019-01-23T10:08:41.445Z,215.43
2019-01-23T10:11:11.859Z,219.23
2019-01-23T10:13:42.222Z,217.00
2019-01-23T10:16:19.706Z,196.90
2019-01-23T10:18:55.832Z,216.23
2019-01-23T10:21:23.241Z,211.80
2019-01-23T10:23:54.131Z,199.53
2019-01-23T10:26:24.226Z,202.33
2019-01-23T10:28:55.394Z,218.43
2019-01-23T10:31:26.419Z,203.43
2019-01-23T10:33:56.832Z,193.50
2019-01-23T10:36:26.912Z,202.63
2019-01-23T10:38:56.991Z,202.27
2019-01-23T10:41:27.772Z,193.43
2019-01-23T10:43:58.266Z,185.63
2019-01-23T10:46:28.697Z,183.50
2019-01-23T10:48:59.050Z,174.83
2019-01-23T10:51:29.506Z,172.53
2019-01-23T10:54:00.554Z,176.87
2019-01-23T10:56:30.704Z,175.10
2019-01-23T10:59:02.161Z,176.13
2019-01-23T11:01:35.526Z,159.23
2019-01-23T11:04:07.108Z,158.63
2019-01-23T11:06:40.579Z,162.77
2019-01-23T11:09:12.660Z,165.40
2019-01-23T11:11:45.930Z,157.47
2019-01-23T11:14:16.079Z,138.77
2019-01-23T11:16:46.156Z,157.97
2019-01-23T11:19:16.256Z,142.47
2019-01-23T11:21:46.399Z,159.17
2019-01-23T11:24:16.490Z,154.53
2019-01-23T11:26:46.756Z,157.20
2019-01-23T11:29:16.840Z,158.40
2019-01-23T11:31:47.032Z,141.07
2019-01-23T11:34:17.213Z,146.80
2019-01-23T11:36:47.287Z,157.50
2019-01-23T11:39:17.395Z,140.70
2019-01-23T11:41:48.359Z,144.67
2019-01-23T11:44:18.614Z,142.70
2019-01-23T11:46:48.796Z,139.27
2019-01-23T11:49:18.912Z,145.00
2019-01-23T11:51:49.025Z,132.80
2019-01-23T11:54:19.111Z,130.13
2019-01-23T11:56:49.327Z,131.27
2019-01-23T11:59:19.522Z,108.73
2019-01-23T12:01:49.645Z,120.40
2019-01-23T12:04:19.670Z,117.77
2019-01-23T12:06:49.824Z,112.87
2019-01-23T12:09:19.900Z,118.87
2019-01-23T12:11:50.030Z,116.00
2019-01-23T12:14:20.189Z,99.17
2019-01-23T12:16:50.267Z,94.50
2019-01-23T12:19:20.399Z,94.47
2019-01-23T12:21:50.498Z,106.73
2019-01-23T12:24:20.660Z,93.83
2019-01-23T12:26:50.868Z,92.23
2019-01-23T12:29:20.981Z,85.37
2019-01-23T12:31:51.081Z,83.23
2019-01-23T12:34:21.221Z,83.23
2019-01-23T12:36:51.237Z,88.40
2019-01-23T12:39:21.336Z,80.80
2019-01-23T12:41:52.646Z,79.53
2019-01-23T12:44:22.695Z,87.73
2019-01-23T12:46:52.820Z,79.57
2019-01-23T12:49:23.024Z,79.23
2019-01-23T12:51:53.087Z,69.07
2019-01-23T12:54:23.172Z,78.17
2019-01-23T12:56:53.314Z,74.57
2019-01-23T12:59:23.424Z,85.73
2019-01-23T13:01:53.482Z,67.30
2019-01-23T13:04:25.015Z,71.37
2019-01-23T13:06:55.231Z,71.63
2019-01-23T13:09:25.280Z,71.97
2019-01-23T13:11:55.359Z,76.67
2019-01-23T13:14:28.166Z,69.33
2019-01-23T13:16:58.258Z,67.73
2019-01-23T13:19:28.341Z,74.10
2019-01-23T13:21:58.897Z,70.30
2019-01-23T13:24:29.003Z,67.00
2019-01-23T13:26:59.023Z,68.97
2019-01-23T13:29:29.230Z,66.77
2019-01-23T13:31:59.322Z,69.27
2019-01-23T13:34:30.233Z,66.43
2019-01-23T13:37:00.604Z,62.83
2019-01-23T13:39:30.684Z,73.43
2019-01-23T13:42:00.772Z,56.07
2019-01-23T13:44:32.588Z,58.80
2019-01-23T13:47:02.776Z,60.97
2019-01-23T13:49:32.927Z,62.87
2019-01-23T13:52:03.185Z,60.23
2019-01-23T13:54:34.157Z,49.17
2019-01-23T13:57:04.286Z,51.30
2019-01-23T13:59:36.719Z,55.27
2019-01-23T14:02:07.123Z,51.47
2019-01-23T14:04:37.212Z,55.77
2019-01-23T14:07:07.387Z,50.70
2019-01-23T14:09:38.661Z,54.70
2019-01-23T14:12:13.856Z,52.30
2019-01-23T14:14:53.296Z,53.47
2019-01-23T14:17:32.052Z,51.77
2019-01-23T14:20:02.508Z,47.47
2019-01-23T14:22:32.662Z,52.60
2019-01-23T14:25:03.141Z,55.30
2019-01-23T14:27:33.495Z,51.47
2019-01-23T14:30:04.847Z,54.97
2019-01-23T14:32:34.938Z,56.27
2019-01-23T14:35:05.859Z,58.10
2019-01-23T14:37:36.039Z,50.83
2019-01-23T14:40:09.132Z,49.90
2019-01-23T14:42:45.972Z,54.70
2019-01-23T14:45:23.158Z,51.07
2019-01-23T14:47:53.783Z,54.43
2019-01-23T14:50:25.225Z,51.33
2019-01-23T14:52:59.408Z,53.23
2019-01-23T14:55:29.989Z,59.33
2019-01-23T14:58:00.809Z,53.93
2019-01-23T15:00:31.981Z,54.43
2019-01-23T15:03:02.550Z,58.33
2019-01-23T15:05:33.330Z,58.00
2019-01-23T15:08:04.246Z,53.17
2019-01-23T15:10:35.197Z,63.60
2019-01-23T15:13:06.563Z,56.57
2019-01-23T15:15:37.789Z,55.67
2019-01-23T15:18:08.568Z,57.97
2019-01-23T15:20:52.046Z,58.80
2019-01-23T15:23:38.017Z,54.07
2019-01-23T15:26:11.470Z,55.30
2019-01-23T15:28:45.696Z,63.43
2019-01-23T15:31:21.061Z,54.27
2019-01-23T15:33:52.364Z,65.37
2019-01-23T15:36:23.258Z,58.20
2019-01-23T15:38:53.783Z,58.93
2019-01-23T15:41:26.126Z,53.90
2019-01-23T15:44:00.110Z,57.40
2019-01-23T15:46:31.932Z,57.83
2019-01-23T15:49:02.211Z,55.27
2019-01-23T15:51:32.586Z,57.37
2019-01-23T15:54:03.557Z,56.97
2019-01-23T15:56:34.584Z,58.57
2019-01-23T15:59:05.330Z,63.20
2019-01-23T16:01:35.635Z,55.77
2019-01-23T16:04:06.943Z,59.13
2019-01-23T16:06:38.759Z,56.17
2019-01-23T16:09:09.619Z,56.40
2019-01-23T16:11:40.894Z,55.73
2019-01-23T16:14:11.257Z,55.13
2019-01-23T16:16:42.131Z,47.70
2019-01-23T16:19:12.626Z,53.40
2019-01-23T16:21:45.753Z,53.30
2019-01-23T16:24:15.915Z,53.93
2019-01-23T16:26:46.390Z,47.13
2019-01-23T16:29:19.585Z,47.30
2019-01-23T16:31:51.324Z,54.50
2019-01-23T16:34:22.474Z,52.07
2019-01-23T16:36:52.545Z,52.00
2019-01-23T16:39:22.625Z,60.47
2019-01-23T16:41:52.680Z,54.23
2019-01-23T16:44:24.674Z,60.00
2019-01-23T16:46:54.894Z,57.93
2019-01-23T16:49:25.387Z,63.07
2019-01-23T16:51:55.476Z,49.33
2019-01-23T16:54:25.660Z,60.10
2019-01-23T16:56:55.719Z,60.23
2019-01-23T16:59:25.867Z,54.23
2019-01-23T17:01:56.044Z,51.17
2019-01-23T17:04:26.236Z,56.00
2019-01-23T17:06:56.473Z,52.97
2019-01-23T17:09:26.572Z,50.70
2019-01-23T17:11:56.670Z,57.83
2019-01-23T17:14:26.824Z,48.13
2019-01-23T17:16:56.822Z,51.90
2019-01-23T17:19:27.033Z,54.97
2019-01-23T17:21:57.228Z,56.27
2019-01-23T17:24:27.656Z,55.47
2019-01-23T17:26:57.836Z,53.50
2019-01-23T17:29:30.810Z,50.37
2019-01-23T17:32:06.146Z,59.00
2019-01-23T17:34:36.640Z,49.70
2019-01-23T17:37:06.739Z,55.47
2019-01-23T17:39:37.593Z,54.90
2019-01-23T17:42:08.079Z,58.70
2019-01-23T17:44:38.356Z,55.10
2019-01-23T17:47:08.775Z,51.57
2019-01-23T17:49:38.942Z,55.40
2019-01-23T17:52:10.123Z,53.50
2019-01-23T17:54:40.678Z,53.57
2019-01-23T17:57:10.912Z,63.03
2019-01-23T17:59:41.081Z,58.90
2019-01-23T18:02:14.915Z,53.13
2019-01-23T18:04:45.071Z,63.23
2019-01-23T18:07:15.263Z,53.30
2019-01-23T18:09:46.535Z,60.23
2019-01-23T18:12:16.638Z,61.73
2019-01-23T18:14:49.167Z,59.97
2019-01-23T18:17:18.539Z,65.63
2019-01-23T18:19:48.733Z,67.53
2019-01-23T18:22:18.805Z,57.67
2019-01-23T18:24:48.893Z,63.60
2019-01-23T18:27:19.188Z,61.37
2019-01-23T18:29:50.355Z,57.53
2019-01-23T18:32:20.475Z,62.70
2019-01-23T18:35:43.734Z,62.70
2019-01-23T18:38:24.410Z,65.67
2019-01-23T18:41:24.953Z,67.17
2019-01-23T18:44:16.693Z,63.30
2019-01-23T18:47:10.591Z,58.97
2019-01-23T18:50:13.262Z,67.43
2019-01-23T18:52:43.388Z,58.70
2019-01-23T18:55:15.238Z,63.13
2019-01-23T18:57:45.397Z,64.97
2019-01-23T19:00:18.772Z,71.60
2019-01-23T19:02:48.867Z,61.73
2019-01-23T19:05:19.594Z,65.43
2019-01-23T19:07:56.759Z,71.87
2019-01-23T19:10:27.034Z,65.43
2019-01-23T19:12:58.107Z,66.43
2019-01-23T19:15:28.275Z,63.50
2019-01-23T19:17:58.514Z,70.47
2019-01-23T19:20:28.640Z,72.27
2019-01-23T19:22:58.832Z,61.83
2019-01-23T19:25:28.917Z,68.63
2019-01-23T19:28:02.554Z,61.97
2019-01-23T19:30:32.866Z,60.83
2019-01-23T19:33:03.514Z,57.83
2019-01-23T19:35:33.814Z,62.40
2019-01-23T19:38:05.243Z,64.93
2019-01-23T19:40:36.565Z,62.03
2019-01-23T19:43:07.197Z,58.23
2019-01-23T19:45:37.983Z,60.13
2019-01-23T19:48:08.424Z,61.10
2019-01-23T19:50:39.636Z,59.03
2019-01-23T19:53:10.355Z,54.40
2019-01-23T19:55:41.605Z,61.53
2019-01-23T19:58:12.490Z,62.13
2019-01-23T20:00:44.195Z,66.40
2019-01-23T20:03:20.438Z,63.03
2019-01-23T20:05:47.491Z,59.70
2019-01-23T20:08:17.840Z,63.60
2019-01-23T20:10:49.069Z,59.30
2019-01-23T20:13:19.136Z,62.30
2019-01-23T20:15:49.479Z,59.90
2019-01-23T20:18:19.723Z,66.43
2019-01-23T20:20:50.906Z,62.20
2019-01-23T20:23:21.249Z,51.77
2019-01-23T20:25:57.299Z,55.30
2019-01-23T20:28:27.417Z,62.23
2019-01-23T20:30:58.915Z,56.80
2019-01-23T20:33:29.170Z,59.07
2019-01-23T20:35:59.539Z,59.70
2019-01-23T20:38:29.994Z,63.17
2019-01-23T20:41:00.474Z,64.00
2019-01-23T20:43:31.788Z,60.20
2019-01-23T20:46:02.630Z,59.50
2019-01-23T20:48:32.859Z,60.57
2019-01-23T20:51:03.010Z,60.50
2019-01-23T20:53:36.704Z,62.63
2019-01-23T20:56:07.317Z,61.67
2019-01-23T20:58:37.678Z,60.43
2019-01-23T21:01:07.913Z,62.43
2019-01-23T21:03:39.489Z,58.90
2019-01-23T21:06:10.292Z,63.53
2019-01-23T21:08:41.848Z,64.07
2019-01-23T21:11:11.958Z,55.87
2019-01-23T21:13:44.069Z,63.23
2019-01-23T21:16:14.635Z,58.03
2019-01-23T21:18:48.303Z,60.67
2019-01-23T21:21:18.342Z,67.27
2019-01-23T21:23:48.886Z,58.80
2019-01-23T21:26:18.936Z,61.87
2019-01-23T21:28:49.054Z,63.80
2019-01-23T21:31:19.637Z,54.83
2019-01-23T21:33:49.762Z,64.00
2019-01-23T21:36:19.981Z,57.50
2019-01-23T21:38:50.254Z,55.93
2019-01-23T21:41:21.311Z,56.77
2019-01-23T21:43:51.598Z,61.77
2019-01-23T21:46:22.679Z,59.80
2019-01-23T21:48:55.597Z,56.23
2019-01-23T21:51:26.291Z,57.13
2019-01-23T21:54:15.369Z,56.60
2019-01-23T21:56:45.882Z,51.43
2019-01-23T21:59:15.986Z,56.40
2019-01-23T22:01:46.527Z,53.80
2019-01-23T22:04:16.593Z,49.23
2019-01-23T22:06:47.444Z,57.03
2019-01-23T22:09:17.520Z,53.40
2019-01-23T22:11:47.804Z,54.13
2019-01-23T22:14:17.856Z,54.43
2019-01-23T22:16:48.130Z,57.73
2019-01-23T22:19:18.355Z,53.70
2019-01-23T22:21:48.426Z,52.97
2019-01-23T22:24:18.598Z,55.07
2019-01-23T22:26:48.768Z,61.73
2019-01-23T22:29:18.915Z,56.27
2019-01-23T22:31:49.046Z,55.27
2019-01-23T22:34:19.125Z,51.33
2019-01-23T22:36:49.296Z,51.83
2019-01-23T22:39:23.301Z,56.40
2019-01-23T22:41:53.380Z,51.00
2019-01-23T22:44:23.444Z,52.60
2019-01-23T22:46:53.513Z,46.70
2019-01-23T22:49:23.597Z,51.27
2019-01-23T22:51:53.678Z,53.57
2019-01-23T22:54:23.742Z,56.53
2019-01-23T22:56:53.898Z,50.97
2019-01-23T22:59:24.006Z,54.10
2019-01-23T23:01:54.135Z,56.00
2019-01-23T23:04:24.259Z,58.00
2019-01-23T23:06:54.383Z,57.13
2019-01-23T23:09:24.571Z,52.70
2019-01-23T23:11:54.694Z,48.70
2019-01-23T23:14:24.773Z,56.37
2019-01-23T23:16:54.932Z,56.13
2019-01-23T23:19:25.154Z,47.27
2019-01-23T23:21:55.294Z,52.93
2019-01-23T23:24:25.423Z,53.23
2019-01-23T23:26:55.577Z,48.33
2019-01-23T23:29:25.657Z,56.10
2019-01-23T23:31:55.829Z,54.17
2019-01-23T23:34:26.024Z,53.47
2019-01-23T23:36:56.196Z,56.87
2019-01-23T23:39:26.375Z,54.40
2019-01-23T23:41:57.834Z,55.20
2019-01-23T23:44:28.092Z,52.43
2019-01-23T23:46:58.206Z,54.13
2019-01-23T23:49:28.341Z,52.20
2019-01-23T23:52:00.066Z,50.73
2019-01-23T23:54:30.268Z,55.27
2019-01-23T23:57:00.464Z,52.03
2019-01-23T23:59:30.629Z,56.30
